F E Warren AFB, Wyoming
Current Conditions -  °F | °C
As of 12:53 AM on Saturday 25 Oct 2014 (Local Time) from KCYS Reporting Station
Clear Clear  
Wind Chill: 52°   Ceiling: Unl
Heat Index: 52°   Visibility: 10mi
Dew Point: 25°   Wind: 12mph
Humidity: 35%   Direction: 270°W
Pressure: 30.24"   Gusts: NA
Location:  41.13°N, 104.82°W
Report Text: KCYS 250653Z AUTO 27010KT 10SM CLR 11/M04 A3024 RMK AO2 SLP169 T01111039 402500072 $
Loading
Personal Weather Stations






























Interactive Weather Map
Tropical Storm Tracking
New forecast layout! Learn more

10-Day Weather Forecast

Advertisements
Track Severe Weather on mobile